Weather History for Harvey, ND

Change the Weather History Date:

Saturday, May 11, 2013

  Actual Average (KRUG) Record (KRUG)
Temperature  
Mean Temperature 40 °F -  
Max Temperature 50 °F 64 °F 91 °F (1987)
Min Temperature 30 °F 40 °F 26 °F (2013)
Degree Days  
Heating Degree Days 25    
Moisture  
Dew Point 23 °F    
Average Humidity 55    
Maximum Humidity 100    
Minimum Humidity 24    
Precipitation  
Precipitation 0.00 in - - ()
Sea Level Pressure  
Sea Level Pressure 30.31 in    
Wind  
Wind Speed 13 mph (NNW)    
Max Wind Speed 23 mph    
Max Gust Speed 33 mph    
Visibility 10 miles    
Events      
Averages and records for this station are not official NWS values.
T = Trace of Precipitation, MM = Missing Value Source: NWS Daily Summary

Daily Weather History Graph

Daily Weather History Graph

Search for Another Location

Airport:

Trip Planner

Search our weather history database for the weather conditions in past years. The results will help you decide how hot, cold, wet, or windy it might be!

Date:

Astronomy

May. 11, 2013 Rise Set
Actual Time 6:06 AM CDT 9:06 PM CDT
Civil Twilight 5:30 AM CDT 9:42 PM CDT
Nautical Twilight 4:43 AM CDT 10:29 PM CDT
Astronomical Twilight 3:47 AM CDT 11:27 PM CDT
Moon 7:13 AM CDT (5/11) 10:50 PM CDT (5/11)
Length of Visible Light 16h 12m
Length of Day
14h 59m
Waxing Crescent, 3% of the Moon is Illuminated
May 11
Waxing Crescent
May 17
First Quarter
May 24
Full
May 31
Last Quarter
Jun 8
New

Hourly Weather History & Observations

Time (CDT) Temp. Windchill Dew Point Humidity Pressure Visibility Wind Dir Wind Speed Gust Speed Precip Events Conditions
12:15 AM 44.6 °F 37.4 °F 26.6 °F 49% 30.22 in 10.0 mi NNW 16.1 mph - N/A   Scattered Clouds
12:35 AM 41.0 °F 31.1 °F 32.0 °F 70% 30.25 in 10.0 mi NNE 23.0 mph 33.4 mph N/A   Scattered Clouds
12:55 AM 39.2 °F 29.0 °F 32.0 °F 75% 30.26 in 10.0 mi North 21.9 mph 26.5 mph N/A   Scattered Clouds
1:15 AM 37.4 °F 28.9 °F 32.0 °F 81% 30.27 in 10.0 mi North 13.8 mph - N/A   Partly Cloudy
1:35 AM 37.4 °F 29.3 °F 32.0 °F 81% 30.28 in 10.0 mi North 12.7 mph - N/A   Clear
1:55 AM 35.6 °F 27.1 °F 32.0 °F 87% 30.29 in 10.0 mi North 12.7 mph - N/A   Clear
2:15 AM 35.6 °F 28.6 °F 32.0 °F 87% 30.29 in 10.0 mi NNW 9.2 mph - N/A   Clear
2:35 AM 33.8 °F 26.4 °F 32.0 °F 93% 30.30 in 10.0 mi NNW 9.2 mph - N/A   Clear
2:55 AM 32.0 °F 24.2 °F 32.0 °F 100% 30.30 in 10.0 mi NNW 9.2 mph - N/A   Clear
3:15 AM 32.0 °F 23.6 °F 32.0 °F 100% 30.31 in 10.0 mi NNW 10.4 mph - N/A   Clear
3:35 AM 32.0 °F 23.0 °F 32.0 °F 100% 30.32 in 10.0 mi NW 11.5 mph - N/A   Clear
3:55 AM 32.0 °F 22.5 °F 32.0 °F 100% 30.32 in 10.0 mi NNW 12.7 mph 19.6 mph N/A   Clear
4:15 AM 32.0 °F 23.0 °F 32.0 °F 100% 30.32 in 10.0 mi NNW 11.5 mph - N/A   Clear
4:35 AM 32.0 °F 22.1 °F 32.0 °F 100% 30.33 in 10.0 mi NNW 13.8 mph - N/A   Clear
4:55 AM 32.0 °F 22.5 °F 32.0 °F 100% 30.33 in 10.0 mi NNW 12.7 mph - N/A   Clear
5:15 AM 32.0 °F 22.5 °F 30.2 °F 93% 30.34 in 10.0 mi NW 12.7 mph - N/A   Clear
5:35 AM 32.0 °F 23.0 °F 28.4 °F 87% 30.35 in 10.0 mi NW 11.5 mph - N/A   Clear
5:55 AM 32.0 °F 23.0 °F 28.4 °F 87% 30.35 in 10.0 mi NNW 11.5 mph - N/A   Clear
6:15 AM 30.2 °F 21.3 °F 28.4 °F 93% 30.35 in 10.0 mi NW 10.4 mph - N/A   Clear
6:35 AM 30.2 °F 21.3 °F 28.4 °F 93% 30.36 in 10.0 mi NW 10.4 mph - N/A   Clear
6:55 AM 32.0 °F 23.6 °F 28.4 °F 87% 30.37 in 10.0 mi NW 10.4 mph - N/A   Clear
7:15 AM 32.0 °F 22.1 °F 28.4 °F 87% 30.38 in 10.0 mi NW 13.8 mph - N/A   Clear
7:35 AM 32.0 °F 22.1 °F 28.4 °F 87% 30.38 in 10.0 mi NNW 13.8 mph 19.6 mph N/A   Clear
7:55 AM 33.8 °F 23.2 °F 28.4 °F 81% 30.39 in 10.0 mi North 17.3 mph - N/A   Clear
8:15 AM 35.6 °F 26.2 °F 26.6 °F 70% 30.39 in 10.0 mi North 15.0 mph 21.9 mph N/A   Clear
8:35 AM 35.6 °F 25.5 °F 26.6 °F 70% 30.39 in 10.0 mi North 17.3 mph - N/A   Clear
8:55 AM 37.4 °F 28.2 °F 24.8 °F 60% 30.39 in 10.0 mi North 16.1 mph - N/A   Clear
9:15 AM 37.4 °F 28.2 °F 23.0 °F 56% 30.39 in 10.0 mi North 16.1 mph - N/A   Clear
9:35 AM 39.2 °F 29.8 °F 21.2 °F 49% 30.39 in 10.0 mi North 18.4 mph 21.9 mph N/A   Clear
9:55 AM 39.2 °F 30.2 °F 19.4 °F 45% 30.39 in 10.0 mi North 17.3 mph - N/A   Unknown
10:15 AM 41.0 °F 31.6 °F 19.4 °F 42% 30.40 in 10.0 mi North 20.7 mph 26.5 mph N/A   Unknown
10:35 AM 41.0 °F 31.9 °F 19.4 °F 42% 30.39 in 10.0 mi North 19.6 mph 24.2 mph N/A   Clear
10:55 AM 41.0 °F 32.2 °F 19.4 °F 42% 30.39 in 10.0 mi North 18.4 mph 24.2 mph N/A   Clear
11:15 AM 41.0 °F 32.2 °F 19.4 °F 42% 30.38 in 10.0 mi North 18.4 mph 25.3 mph N/A   Clear
11:35 AM 42.8 °F 35.4 °F 19.4 °F 39% 30.38 in 10.0 mi NNW 15.0 mph - N/A   Clear
11:55 AM 44.6 °F 36.9 °F 17.6 °F 34% 30.38 in 10.0 mi North 18.4 mph 24.2 mph N/A   Clear
12:15 PM 44.6 °F 37.2 °F 17.6 °F 34% 30.37 in 10.0 mi North 17.3 mph 21.9 mph N/A   Clear
12:35 PM 44.6 °F 38.4 °F 17.6 °F 34% 30.37 in 10.0 mi NNW 12.7 mph 19.6 mph N/A   Clear
12:55 PM 46.4 °F 39.2 °F 17.6 °F 32% 30.36 in 10.0 mi NW 18.4 mph 24.2 mph N/A   Clear
1:15 PM 46.4 °F 40.7 °F 15.8 °F 29% 30.36 in 10.0 mi NW 12.7 mph 23.0 mph N/A   Clear
1:35 PM 46.4 °F 40.7 °F 17.6 °F 32% 30.35 in 10.0 mi NW 12.7 mph 18.4 mph N/A   Clear
1:55 PM 46.4 °F 41.9 °F 17.6 °F 32% 30.35 in 10.0 mi WNW 9.2 mph 19.6 mph N/A   Clear
2:15 PM 48.2 °F - 17.6 °F 30% 30.34 in 10.0 mi NNW 11.5 mph 20.7 mph N/A   Clear
2:35 PM 48.2 °F - 15.8 °F 27% 30.34 in 10.0 mi North 12.7 mph 21.9 mph N/A   Clear
2:55 PM 48.2 °F - 15.8 °F 27% 30.33 in 10.0 mi NNW 13.8 mph 18.4 mph N/A   Clear
3:15 PM 48.2 °F - 15.8 °F 27% 30.33 in 10.0 mi NNW 11.5 mph 16.1 mph N/A   Clear
3:35 PM 48.2 °F - 15.8 °F 27% 30.32 in 10.0 mi North 15.0 mph 18.4 mph N/A   Clear
3:55 PM 50.0 °F - 15.8 °F 26% 30.31 in 10.0 mi North 11.5 mph 18.4 mph N/A   Clear
4:15 PM 50.0 °F - 14.0 °F 24% 30.31 in 10.0 mi NNW 11.5 mph 20.7 mph N/A   Clear
4:35 PM 50.0 °F - 15.8 °F 26% 30.30 in 10.0 mi North 13.8 mph - N/A   Clear
4:55 PM 50.0 °F - 15.8 °F 26% 30.29 in 10.0 mi NNW 15.0 mph 20.7 mph N/A   Clear
5:15 PM 50.0 °F - 14.0 °F 24% 30.29 in 10.0 mi NNW 11.5 mph 18.4 mph N/A   Clear
5:35 PM 50.0 °F - 15.8 °F 26% 30.28 in 10.0 mi NNW 12.7 mph - N/A   Clear
5:55 PM 50.0 °F - 14.0 °F 24% 30.28 in 10.0 mi NNW 9.2 mph 19.6 mph N/A   Clear
6:15 PM 50.0 °F - 15.8 °F 26% 30.28 in 10.0 mi WNW 11.5 mph 17.3 mph N/A   Clear
6:35 PM 50.0 °F - 15.8 °F 26% 30.27 in 10.0 mi NNW 13.8 mph 19.6 mph N/A   Clear
6:55 PM 50.0 °F - 15.8 °F 26% 30.26 in 10.0 mi North 13.8 mph 18.4 mph N/A   Clear
7:15 PM 50.0 °F - 14.0 °F 24% 30.26 in 10.0 mi NNW 6.9 mph - N/A   Clear
7:35 PM 50.0 °F - 14.0 °F 24% 30.25 in 10.0 mi North 9.2 mph - N/A   Clear
7:55 PM 48.2 °F - 15.8 °F 27% 30.25 in 10.0 mi North 9.2 mph - N/A   Clear
8:15 PM 48.2 °F - 15.8 °F 27% 30.24 in 10.0 mi North 8.1 mph - N/A   Clear
8:35 PM 46.4 °F 42.9 °F 19.4 °F 34% 30.24 in 10.0 mi North 6.9 mph - N/A   Clear
8:55 PM 44.6 °F 41.4 °F 19.4 °F 37% 30.24 in 10.0 mi North 5.8 mph - N/A   Clear
9:15 PM 42.8 °F 39.3 °F 21.2 °F 42% 30.24 in 10.0 mi North 5.8 mph - N/A   Clear
9:35 PM 41.0 °F 37.1 °F 23.0 °F 49% 30.24 in 10.0 mi North 5.8 mph - N/A   Clear
9:55 PM 41.0 °F 39.0 °F 24.8 °F 53% 30.24 in 10.0 mi North 3.5 mph - N/A   Clear
10:15 PM 41.0 °F - 19.4 °F 42% 30.24 in 10.0 mi Calm Calm - N/A   Clear
10:35 PM 37.4 °F - 21.2 °F 52% 30.24 in 10.0 mi Calm Calm - N/A   Clear
10:55 PM 37.4 °F - 23.0 °F 56% 30.25 in 10.0 mi Calm Calm - N/A   Clear
11:15 PM 37.4 °F - 24.8 °F 60% 30.24 in 10.0 mi Calm Calm - N/A   Clear
11:35 PM 37.4 °F - 23.0 °F 56% 30.25 in 10.0 mi Calm Calm - N/A   Clear
11:55 PM 33.8 °F - 24.8 °F 70% 30.24 in 10.0 mi Calm Calm - N/A   Clear